Time;durP1;ratioP1;P1;durP2;ratioP2;P2;SDS_P1;SDS_P2;PMS_P1;PMS_P2;Temp;Humidity;BMP_temperature;BMP_pressure;BME280_temperature;BME280_humidity;BME280_pressure;Samples;Min_cycle;Max_cycle;Signal;HPM_P1;HPM_P2
2023/11/01 00:00:34;;;;;;;1.07;0.90;;;8.90;99.90;;;;;;5139706;28;20455;-60
2023/11/01 00:03:01;;;;;;;1.17;0.70;;;8.90;99.90;;;;;;5139065;28;20465;-64
2023/11/01 00:05:28;;;;;;;1.90;0.70;;;8.90;99.90;;;;;;5138908;28;20440;-64
2023/11/01 00:07:55;;;;;;;2.00;0.70;;;8.80;99.90;;;;;;5132762;28;20477;-62
2023/11/01 00:10:22;;;;;;;2.70;1.00;;;8.90;99.90;;;;;;5121585;28;20445;-62
2023/11/01 00:12:49;;;;;;;1.47;0.80;;;8.90;99.90;;;;;;5118933;28;20453;-62
2023/11/01 00:15:16;;;;;;;1.00;0.70;;;8.80;99.90;;;;;;5118585;28;20422;-61
2023/11/01 00:17:44;;;;;;;1.00;0.70;;;8.80;99.90;;;;;;5117950;28;20500;-60
2023/11/01 00:20:12;;;;;;;1.20;0.80;;;8.80;99.90;;;;;;5117817;28;20453;-64
2023/11/01 00:22:39;;;;;;;1.33;0.83;;;8.80;99.90;;;;;;5118100;28;20445;-62
2023/11/01 00:25:06;;;;;;;3.03;0.90;;;8.80;99.90;;;;;;5117796;28;20425;-64
2023/11/01 00:27:34;;;;;;;7.90;1.07;;;8.80;99.90;;;;;;5117789;28;20488;-59
2023/11/01 00:30:01;;;;;;;2.13;0.80;;;8.80;99.90;;;;;;5118059;28;20442;-63
2023/11/01 00:32:28;;;;;;;2.40;0.70;;;8.90;99.90;;;;;;5118136;28;20454;-66
2023/11/01 00:34:57;;;;;;;1.10;0.70;;;8.80;99.90;;;;;;5118503;28;20444;-61
2023/11/01 00:37:24;;;;;;;1.20;0.77;;;8.80;99.90;;;;;;5118441;28;20452;-62
2023/11/01 00:39:51;;;;;;;1.00;0.70;;;8.80;99.90;;;;;;5117973;28;20421;-61
2023/11/01 00:42:19;;;;;;;1.40;0.70;;;8.80;99.90;;;;;;5123016;28;20429;-63
2023/11/01 00:44:46;;;;;;;3.33;0.97;;;8.80;99.90;;;;;;5137615;28;20476;-58
2023/11/01 00:47:13;;;;;;;2.43;1.10;;;8.80;99.90;;;;;;5137234;28;20437;-62
2023/11/01 00:49:40;;;;;;;1.20;0.70;;;8.80;99.90;;;;;;5137942;28;20499;-55
2023/11/01 00:52:08;;;;;;;3.37;0.93;;;8.90;99.90;;;;;;5137097;28;20453;-60
2023/11/01 00:54:35;;;;;;;1.40;0.90;;;8.90;99.90;;;;;;5124910;28;20981;-62
2023/11/01 00:57:02;;;;;;;1.37;0.90;;;9.00;99.90;;;;;;5117231;28;20422;-63
2023/11/01 00:59:29;;;;;;;1.40;0.87;;;9.00;99.90;;;;;;5117555;28;20529;-63
2023/11/01 01:01:56;;;;;;;1.50;0.90;;;9.00;99.90;;;;;;5117540;28;20445;-63
2023/11/01 01:04:23;;;;;;;1.37;0.70;;;9.00;99.90;;;;;;5117575;28;20527;-57
2023/11/01 01:06:50;;;;;;;3.13;0.83;;;9.00;99.90;;;;;;5116937;28;20482;-61
2023/11/01 01:09:18;;;;;;;1.20;0.90;;;9.00;99.90;;;;;;5117405;28;20477;-61
2023/11/01 01:11:45;;;;;;;2.13;0.93;;;9.00;99.90;;;;;;5117367;28;20500;-59
2023/11/01 01:14:11;;;;;;;4.43;1.17;;;9.10;99.90;;;;;;5117547;28;20422;-60
2023/11/01 01:16:38;;;;;;;1.10;0.77;;;9.10;99.90;;;;;;5117056;28;20453;-64
2023/11/01 01:19:05;;;;;;;1.63;1.00;;;9.10;99.90;;;;;;5115358;28;20430;-62
2023/11/01 01:21:32;;;;;;;1.50;0.70;;;9.10;99.90;;;;;;5115080;28;20452;-68
2023/11/01 01:23:59;;;;;;;1.77;0.90;;;9.20;99.90;;;;;;5115395;28;20480;-66
2023/11/01 01:26:28;;;;;;;1.53;0.97;;;9.20;99.90;;;;;;5116674;28;20429;-63
2023/11/01 01:28:54;;;;;;;3.73;1.07;;;9.30;99.90;;;;;;5117055;28;20465;-62
2023/11/01 01:31:22;;;;;;;1.30;0.83;;;9.30;99.90;;;;;;5116956;28;20437;-63
2023/11/01 01:33:49;;;;;;;1.60;1.27;;;9.20;99.90;;;;;;5116474;28;20437;-64
2023/11/01 01:36:16;;;;;;;2.07;1.10;;;9.20;99.90;;;;;;5116544;28;20446;-65
2023/11/01 01:38:43;;;;;;;2.20;1.00;;;9.20;99.90;;;;;;5116061;28;20434;-63
2023/11/01 01:41:10;;;;;;;1.53;1.27;;;9.20;99.90;;;;;;5116879;28;20437;-63
2023/11/01 01:43:38;;;;;;;2.10;1.13;;;9.20;99.90;;;;;;5116415;28;20449;-63
2023/11/01 01:46:08;;;;;;;1.23;0.80;;;9.30;99.90;;;;;;5116486;28;20454;-61
2023/11/01 01:48:37;;;;;;;1.87;1.27;;;9.30;99.90;;;;;;5116246;28;20484;-64
2023/11/01 01:51:05;;;;;;;1.80;1.17;;;9.30;99.90;;;;;;5116558;28;20517;-61
2023/11/01 01:53:34;;;;;;;8.73;1.53;;;9.30;99.90;;;;;;5119467;28;20467;-63
2023/11/01 01:56:01;;;;;;;3.53;1.00;;;9.40;99.90;;;;;;5136533;28;20452;-61
2023/11/01 01:58:32;;;;;;;1.67;1.03;;;9.40;99.90;;;;;;5136565;28;20434;-63
2023/11/01 02:01:01;;;;;;;3.37;1.03;;;9.40;99.90;;;;;;5136620;28;20437;-61
2023/11/01 02:03:28;;;;;;;1.00;0.80;;;9.40;99.90;;;;;;5136261;28;20441;-64
2023/11/01 02:05:55;;;;;;;1.73;1.10;;;9.40;99.90;;;;;;5136852;28;20449;-61
2023/11/01 02:08:26;;;;;;;1.63;1.10;;;9.40;99.90;;;;;;5136570;28;20547;-62
2023/11/01 02:10:52;;;;;;;3.07;1.27;;;9.40;99.90;;;;;;5136593;28;20502;-60
2023/11/01 02:13:19;;;;;;;3.13;1.00;;;9.40;99.90;;;;;;5136536;28;20460;-62
2023/11/01 02:15:47;;;;;;;1.90;1.40;;;9.40;99.90;;;;;;5136603;28;20436;-61
2023/11/01 02:18:16;;;;;;;2.93;1.30;;;9.40;99.90;;;;;;5136464;28;20440;-62
2023/11/01 02:20:46;;;;;;;1.63;1.10;;;9.50;99.90;;;;;;5136461;28;20591;-64
2023/11/01 02:23:16;;;;;;;2.37;1.13;;;9.50;99.90;;;;;;5136498;28;20417;-56
2023/11/01 02:25:45;;;;;;;1.50;1.00;;;9.50;99.90;;;;;;5136338;28;20449;-60
2023/11/01 02:28:13;;;;;;;2.10;0.97;;;9.50;99.90;;;;;;5136195;28;20482;-60
2023/11/01 02:30:40;;;;;;;2.47;1.30;;;9.50;99.90;;;;;;5136048;28;20449;-62
2023/11/01 02:33:07;;;;;;;2.30;1.00;;;9.40;99.90;;;;;;5136168;28;20479;-58
2023/11/01 02:35:34;;;;;;;1.47;1.10;;;9.40;99.90;;;;;;5135936;28;20464;-59
2023/11/01 02:38:01;;;;;;;3.53;1.77;;;9.40;99.90;;;;;;5136354;28;20437;-60
2023/11/01 02:40:28;;;;;;;1.73;0.93;;;9.40;99.90;;;;;;5135744;28;20455;-61
2023/11/01 02:42:56;;;;;;;4.63;0.93;;;9.30;99.90;;;;;;5136207;28;20420;-62
2023/11/01 02:45:23;;;;;;;3.30;1.37;;;9.40;99.90;;;;;;5135834;28;20451;-62
2023/11/01 02:47:50;;;;;;;1.80;1.20;;;9.40;99.90;;;;;;5135878;28;20468;-63
2023/11/01 02:50:19;;;;;;;10.00;1.53;;;9.40;99.90;;;;;;5139699;28;20447;-62
2023/11/01 02:52:46;;;;;;;1.87;1.00;;;9.40;99.90;;;;;;5139202;28;20464;-63
2023/11/01 02:55:14;;;;;;;3.70;1.20;;;9.40;99.90;;;;;;5139748;28;20447;-62
2023/11/01 02:57:42;;;;;;;2.00;1.40;;;9.40;99.90;;;;;;5139805;28;20518;-62
2023/11/01 03:00:18;;;;;;;1.10;0.87;;;9.40;99.90;;;;;;5139685;28;20417;-64
2023/11/01 03:02:46;;;;;;;3.07;1.40;;;9.40;99.90;;;;;;5139562;28;20425;-61
2023/11/01 03:05:13;;;;;;;1.83;1.27;;;9.30;99.90;;;;;;5139840;28;20436;-63
2023/11/01 03:07:40;;;;;;;4.50;1.70;;;9.30;99.90;;;;;;5137298;28;20480;-60
2023/11/01 03:10:08;;;;;;;2.67;1.10;;;9.30;99.90;;;;;;5139340;28;20499;-60
2023/11/01 03:12:35;;;;;;;1.63;1.00;;;9.20;99.90;;;;;;5139283;28;20447;-61
2023/11/01 03:15:02;;;;;;;1.40;1.00;;;9.20;99.90;;;;;;5139101;28;20464;-65
2023/11/01 03:17:32;;;;;;;1.53;0.90;;;9.20;99.90;;;;;;5139593;28;20442;-65
2023/11/01 03:19:59;;;;;;;9.13;2.60;;;9.20;99.90;;;;;;5139633;28;20440;-61
2023/11/01 03:22:26;;;;;;;4.70;1.30;;;9.20;99.90;;;;;;5139287;28;20440;-62
2023/11/01 03:24:53;;;;;;;2.40;1.10;;;9.20;99.90;;;;;;5138898;28;20469;-62
2023/11/01 03:27:20;;;;;;;1.47;1.00;;;9.20;99.90;;;;;;5139083;28;20484;-62
2023/11/01 03:29:47;;;;;;;3.20;1.30;;;9.10;99.90;;;;;;5138935;28;20459;-63
2023/11/01 03:32:14;;;;;;;1.70;0.90;;;9.20;99.90;;;;;;5139271;28;20452;-62
2023/11/01 03:34:42;;;;;;;2.10;0.83;;;9.20;99.90;;;;;;5139501;28;20441;-61
2023/11/01 03:37:09;;;;;;;4.30;1.20;;;9.20;99.90;;;;;;5138967;28;20472;-64
2023/11/01 03:39:35;;;;;;;2.27;2.07;;;9.20;99.90;;;;;;5139270;28;20441;-64
2023/11/01 03:42:04;;;;;;;1.30;0.80;;;9.20;99.90;;;;;;5139258;28;20464;-60
2023/11/01 03:44:32;;;;;;;9.30;2.23;;;9.20;99.90;;;;;;5139122;28;20483;-62
2023/11/01 03:46:59;;;;;;;1.53;0.70;;;9.20;99.90;;;;;;5138992;28;20497;-61
2023/11/01 03:49:29;;;;;;;2.17;1.10;;;9.20;99.90;;;;;;5138488;28;20475;-63
2023/11/01 03:52:02;;;;;;;1.70;1.10;;;9.20;99.90;;;;;;5138995;28;20455;-62
2023/11/01 03:54:29;;;;;;;2.03;1.10;;;9.20;99.90;;;;;;5138258;28;20492;-62
2023/11/01 03:56:56;;;;;;;2.60;1.53;;;9.20;99.90;;;;;;5138636;28;20444;-63
2023/11/01 03:59:23;;;;;;;3.70;1.13;;;9.30;99.90;;;;;;5138003;28;20417;-62
2023/11/01 04:01:49;;;;;;;2.80;1.43;;;9.30;99.90;;;;;;5138647;28;20424;-63
2023/11/01 04:04:16;;;;;;;2.33;1.40;;;9.40;99.90;;;;;;5138423;28;20466;-60
2023/11/01 04:06:43;;;;;;;4.40;1.30;;;9.40;99.90;;;;;;5138788;28;20440;-62
2023/11/01 04:09:12;;;;;;;2.17;1.23;;;9.30;99.90;;;;;;5138720;28;20495;-64
2023/11/01 04:11:38;;;;;;;1.50;1.07;;;9.30;99.90;;;;;;5138366;28;20499;-63
2023/11/01 04:14:07;;;;;;;2.57;1.53;;;9.40;99.90;;;;;;5136253;28;20452;-58
2023/11/01 04:16:34;;;;;;;2.70;1.80;;;9.40;99.90;;;;;;5138162;28;20518;-66
2023/11/01 04:19:02;;;;;;;4.00;1.60;;;9.40;99.90;;;;;;5136719;28;20448;-63
2023/11/01 04:21:29;;;;;;;3.33;1.80;;;9.40;99.90;;;;;;5136709;28;20460;-62
2023/11/01 04:23:56;;;;;;;3.07;1.20;;;9.40;99.90;;;;;;5136450;28;20496;-63
2023/11/01 04:26:24;;;;;;;2.10;1.03;;;9.40;99.90;;;;;;5137304;28;20417;-63
2023/11/01 04:28:51;;;;;;;3.87;1.10;;;9.40;99.90;;;;;;5137773;28;20537;-64
2023/11/01 04:31:24;;;;;;;3.13;1.67;;;9.30;99.90;;;;;;5137959;28;20432;-65
2023/11/01 04:33:51;;;;;;;2.40;2.07;;;9.30;99.90;;;;;;5137368;28;20444;-61
2023/11/01 04:36:19;;;;;;;3.67;1.30;;;9.40;99.90;;;;;;5137540;28;20436;-63
2023/11/01 04:38:47;;;;;;;1.50;1.10;;;9.30;99.90;;;;;;5137988;28;20501;-66
2023/11/01 04:41:14;;;;;;;1.30;0.97;;;9.30;99.90;;;;;;5137497;28;20465;-64
2023/11/01 04:43:42;;;;;;;4.60;1.23;;;9.30;99.90;;;;;;5137921;28;20448;-63
2023/11/01 04:46:10;;;;;;;5.20;1.63;;;9.40;99.90;;;;;;5137821;28;20443;-58
2023/11/01 04:48:37;;;;;;;1.70;1.30;;;9.50;99.90;;;;;;5137879;28;20440;-64
2023/11/01 04:51:04;;;;;;;2.50;1.20;;;9.50;99.90;;;;;;5136884;28;20421;-64
2023/11/01 04:53:31;;;;;;;3.10;1.83;;;9.40;99.90;;;;;;5136991;28;20490;-63
2023/11/01 04:55:58;;;;;;;1.67;1.30;;;9.50;99.90;;;;;;5137003;28;20432;-64
2023/11/01 04:58:26;;;;;;;3.07;1.23;;;9.50;99.90;;;;;;5137671;28;21015;-63
2023/11/01 05:00:54;;;;;;;4.40;1.63;;;9.50;99.90;;;;;;5137670;28;20457;-63
2023/11/01 05:03:21;;;;;;;1.30;1.10;;;9.60;99.90;;;;;;5137265;28;20502;-60
2023/11/01 05:05:47;;;;;;;3.53;1.40;;;9.60;99.90;;;;;;5137090;28;20475;-64
2023/11/01 05:08:14;;;;;;;1.57;1.10;;;9.60;99.90;;;;;;5137247;28;20444;-61
2023/11/01 05:10:41;;;;;;;7.37;1.67;;;9.60;99.90;;;;;;5137306;28;20470;-59
2023/11/01 05:13:08;;;;;;;2.27;1.30;;;9.60;99.90;;;;;;5136165;28;20444;-58
2023/11/01 05:15:36;;;;;;;2.20;1.70;;;9.60;99.90;;;;;;5137612;28;20478;-61
2023/11/01 05:18:04;;;;;;;4.63;1.27;;;9.60;99.90;;;;;;5137563;28;20494;-61
2023/11/01 05:20:32;;;;;;;1.30;1.20;;;9.60;99.90;;;;;;5137198;28;20465;-64
2023/11/01 05:22:59;;;;;;;1.73;1.40;;;9.60;99.90;;;;;;5136766;28;20452;-62
2023/11/01 05:25:26;;;;;;;1.23;1.13;;;9.60;99.90;;;;;;5136655;28;20409;-64
2023/11/01 05:27:53;;;;;;;3.60;1.37;;;9.60;99.90;;;;;;5137351;28;20440;-65
2023/11/01 05:30:20;;;;;;;2.60;1.43;;;9.60;99.90;;;;;;5136891;28;20488;-60
2023/11/01 05:32:47;;;;;;;1.50;1.00;;;9.60;99.90;;;;;;5137325;28;20433;-63
2023/11/01 05:35:16;;;;;;;3.43;1.33;;;9.60;99.90;;;;;;5136910;28;20437;-62
2023/11/01 05:37:44;;;;;;;3.30;1.03;;;9.60;99.90;;;;;;5137253;28;20917;-62
2023/11/01 05:40:14;;;;;;;1.43;1.03;;;9.60;99.90;;;;;;5136824;28;20443;-63
2023/11/01 05:42:42;;;;;;;2.37;1.23;;;9.50;99.90;;;;;;5136805;28;20460;-59
2023/11/01 05:45:15;;;;;;;7.97;1.27;;;9.60;99.90;;;;;;5136807;28;20428;-63
2023/11/01 05:47:42;;;;;;;2.10;1.10;;;9.60;99.90;;;;;;5136592;28;20484;-64
2023/11/01 05:50:12;;;;;;;2.97;1.30;;;9.50;99.90;;;;;;5136490;28;20490;-63
2023/11/01 05:52:40;;;;;;;1.73;1.40;;;9.60;99.90;;;;;;5136217;28;20472;-63
2023/11/01 05:55:08;;;;;;;1.30;1.00;;;9.60;99.90;;;;;;5135958;28;20460;-64
2023/11/01 05:57:37;;;;;;;2.30;1.30;;;9.60;99.90;;;;;;5136481;28;20444;-62
2023/11/01 06:00:08;;;;;;;9.13;1.73;;;9.70;99.90;;;;;;5136503;28;20512;-62
2023/11/01 06:02:36;;;;;;;7.83;2.83;;;9.70;99.90;;;;;;5136233;28;20440;-63
2023/11/01 06:05:04;;;;;;;6.10;2.70;;;9.70;99.90;;;;;;5136818;28;20427;-59
2023/11/01 06:07:31;;;;;;;6.77;1.80;;;9.70;99.90;;;;;;5136615;28;20512;-63
2023/11/01 06:09:59;;;;;;;4.27;1.43;;;9.70;99.90;;;;;;5136867;28;20448;-63
2023/11/01 06:12:26;;;;;;;3.03;1.43;;;9.80;99.90;;;;;;5136218;28;20468;-61
2023/11/01 06:14:52;;;;;;;8.77;3.77;;;9.80;99.90;;;;;;5136110;28;20436;-61
2023/11/01 06:17:20;;;;;;;4.97;2.30;;;9.70;99.90;;;;;;5136440;28;20444;-60
2023/11/01 06:19:48;;;;;;;2.70;1.83;;;9.70;99.90;;;;;;5136082;28;20466;-60
2023/11/01 06:22:16;;;;;;;2.90;1.63;;;9.70;99.90;;;;;;5136521;28;20452;-63
2023/11/01 06:24:43;;;;;;;2.80;1.83;;;9.70;99.90;;;;;;5139812;28;20460;-61
2023/11/01 06:27:12;;;;;;;1.57;1.47;;;9.80;99.90;;;;;;5140037;28;20436;-63
2023/11/01 06:29:42;;;;;;;4.53;2.10;;;9.80;99.90;;;;;;5140172;28;20502;-61
2023/11/01 06:32:09;;;;;;;4.40;1.87;;;9.80;99.90;;;;;;5140458;28;20428;-62
2023/11/01 06:34:36;;;;;;;2.33;1.50;;;9.80;99.90;;;;;;5140275;28;20436;-64
2023/11/01 06:37:03;;;;;;;3.00;1.37;;;9.80;99.90;;;;;;5140124;28;20520;-64
2023/11/01 06:39:30;;;;;;;3.77;1.27;;;9.80;99.90;;;;;;5140406;28;20448;-62
2023/11/01 06:41:57;;;;;;;1.63;1.20;;;9.80;99.90;;;;;;5140843;28;20448;-60
2023/11/01 06:44:26;;;;;;;7.50;1.87;;;9.80;99.90;;;;;;5117761;28;20438;-60
2023/11/01 06:46:53;;;;;;;1.50;1.13;;;9.90;99.90;;;;;;5099811;28;20461;-64
2023/11/01 06:49:20;;;;;;;2.80;1.53;;;9.80;99.90;;;;;;5102375;28;20517;-63
2023/11/01 06:51:47;;;;;;;4.00;1.63;;;9.90;99.90;;;;;;5119979;28;20453;-64
2023/11/01 06:54:14;;;;;;;2.47;1.90;;;9.90;99.90;;;;;;5133883;28;20543;-59
2023/11/01 06:56:44;;;;;;;2.50;1.17;;;9.90;99.90;;;;;;5140013;28;20423;-62
2023/11/01 06:59:12;;;;;;;3.03;1.63;;;9.90;99.90;;;;;;5136796;28;20440;-58
2023/11/01 07:01:40;;;;;;;2.37;1.40;;;9.90;99.90;;;;;;5139551;28;20494;-62
2023/11/01 07:04:08;;;;;;;3.00;1.53;;;9.90;99.90;;;;;;5140089;28;20436;-61
2023/11/01 07:06:34;;;;;;;5.10;1.43;;;9.90;99.90;;;;;;5125448;28;20500;-62
2023/11/01 07:09:01;;;;;;;1.63;1.50;;;9.80;99.90;;;;;;5117519;28;20449;-64
2023/11/01 07:11:28;;;;;;;2.33;1.53;;;9.70;99.90;;;;;;5118595;28;20521;-58
2023/11/01 07:13:55;;;;;;;1.80;1.40;;;9.70;99.90;;;;;;5119000;28;20504;-63
2023/11/01 07:16:22;;;;;;;1.83;1.33;;;9.70;99.90;;;;;;5120162;28;20456;-57
2023/11/01 07:18:50;;;;;;;1.97;1.30;;;9.70;99.90;;;;;;5120112;28;20492;-67
2023/11/01 07:21:18;;;;;;;2.83;1.30;;;9.70;99.90;;;;;;5117642;28;20442;-59
2023/11/01 07:23:45;;;;;;;2.30;1.40;;;9.80;99.90;;;;;;5117278;28;20465;-63
2023/11/01 07:26:12;;;;;;;1.83;1.30;;;9.80;99.90;;;;;;5117856;28;20476;-65
2023/11/01 07:28:39;;;;;;;2.33;1.80;;;9.90;99.90;;;;;;5117222;28;20433;-66
2023/11/01 07:31:06;;;;;;;2.60;1.57;;;10.00;99.90;;;;;;5100752;28;20482;-60
2023/11/01 07:33:33;;;;;;;5.53;1.70;;;10.00;99.90;;;;;;5108566;28;20473;-62
2023/11/01 07:36:01;;;;;;;3.40;1.60;;;10.10;99.90;;;;;;5116353;28;20442;-62
2023/11/01 07:38:29;;;;;;;2.23;1.33;;;10.10;99.90;;;;;;5116648;28;20477;-60
2023/11/01 07:40:55;;;;;;;7.93;5.03;;;10.10;99.90;;;;;;5112203;28;20455;-52
2023/11/01 07:43:24;;;;;;;2.10;1.50;;;10.30;99.90;;;;;;5133962;28;20500;-65
2023/11/01 07:45:51;;;;;;;8.23;2.83;;;10.40;99.90;;;;;;5128391;28;20457;-58
2023/11/01 07:48:19;;;;;;;4.10;1.60;;;10.50;99.90;;;;;;5121228;28;20450;-61
2023/11/01 07:50:46;;;;;;;6.77;1.60;;;10.60;99.90;;;;;;5106200;28;20519;-65
2023/11/01 07:53:15;;;;;;;9.70;2.10;;;10.60;99.90;;;;;;5113965;28;20426;-59
2023/11/01 07:55:41;;;;;;;2.10;1.80;;;10.70;99.90;;;;;;5092708;28;20446;-60
2023/11/01 07:58:08;;;;;;;8.87;1.83;;;10.70;99.90;;;;;;5090985;28;20505;-53
2023/11/01 08:00:35;;;;;;;5.37;3.20;;;10.60;99.90;;;;;;5106294;28;20438;-53
2023/11/01 08:03:03;;;;;;;12.13;2.00;;;10.50;99.90;;;;;;5110904;28;20441;-62
2023/11/01 08:05:29;;;;;;;4.93;1.50;;;10.60;99.90;;;;;;5087704;28;20433;-65
2023/11/01 08:07:56;;;;;;;2.53;1.50;;;10.50;99.90;;;;;;5089352;28;20477;-65
2023/11/01 08:10:24;;;;;;;5.10;2.70;;;10.50;99.90;;;;;;5104250;28;20486;-54
2023/11/01 08:12:51;;;;;;;5.67;1.73;;;10.60;99.90;;;;;;5105829;28;20458;-64
2023/11/01 08:15:20;;;;;;;6.20;1.50;;;10.60;99.90;;;;;;5092391;28;20428;-56
2023/11/01 08:17:47;;;;;;;10.33;3.00;;;10.60;99.90;;;;;;5099599;28;20505;-64
2023/11/01 08:20:14;;;;;;;2.03;1.60;;;10.70;99.90;;;;;;5106066;28;20438;-55
2023/11/01 08:22:40;;;;;;;6.70;1.93;;;10.70;99.90;;;;;;5107591;28;20414;-57
2023/11/01 08:25:11;;;;;;;2.37;1.70;;;10.80;99.90;;;;;;5091830;28;20472;-53
2023/11/01 08:27:40;;;;;;;3.00;1.80;;;10.80;99.90;;;;;;5108860;28;20426;-58
2023/11/01 08:30:08;;;;;;;3.47;2.07;;;10.80;99.90;;;;;;5078240;28;20511;-64
2023/11/01 08:32:36;;;;;;;9.90;2.13;;;10.90;99.90;;;;;;5096129;28;20456;-65
2023/11/01 08:35:03;;;;;;;2.60;2.00;;;11.00;99.90;;;;;;5109566;28;20512;-62
2023/11/01 08:37:30;;;;;;;3.40;2.10;;;11.10;99.90;;;;;;5115623;28;20458;-63
2023/11/01 08:39:58;;;;;;;3.30;2.17;;;11.10;99.90;;;;;;5097770;28;20445;-60
2023/11/01 08:42:28;;;;;;;3.53;2.50;;;11.10;99.90;;;;;;5097097;28;20442;-53
2023/11/01 08:44:58;;;;;;;8.43;2.37;;;11.10;99.90;;;;;;5104836;28;20438;-65
2023/11/01 08:47:35;;;;;;;2.80;1.93;;;11.20;99.90;;;;;;5091453;28;20473;-64
2023/11/01 08:50:03;;;;;;;4.80;3.37;;;11.30;99.90;;;;;;5096215;28;20461;-59
2023/11/01 08:52:32;;;;;;;6.17;2.03;;;11.30;99.90;;;;;;5095700;28;20470;-56
2023/11/01 08:54:58;;;;;;;6.63;2.20;;;11.40;99.90;;;;;;5105157;28;20469;-63
2023/11/01 08:57:26;;;;;;;6.67;2.33;;;11.50;99.90;;;;;;5103942;28;20434;-61
2023/11/01 08:59:57;;;;;;;3.63;2.73;;;11.60;99.90;;;;;;5092533;28;20442;-62
2023/11/01 09:02:27;;;;;;;4.00;2.57;;;11.70;99.90;;;;;;5118871;28;20489;-52
2023/11/01 09:04:55;;;;;;;2.77;2.07;;;11.80;99.90;;;;;;5103845;28;20915;-65
2023/11/01 09:07:22;;;;;;;6.03;2.00;;;11.90;99.90;;;;;;5096426;28;20470;-61
2023/11/01 09:09:50;;;;;;;6.73;2.93;;;12.00;99.90;;;;;;5103792;28;20426;-57
2023/11/01 09:12:18;;;;;;;7.20;1.87;;;12.20;99.90;;;;;;5091446;28;20419;-48
2023/11/01 09:14:46;;;;;;;2.60;2.33;;;12.40;99.90;;;;;;5096580;28;20429;-59
2023/11/01 09:17:14;;;;;;;7.40;2.10;;;12.50;99.90;;;;;;5104077;28;20442;-64
2023/11/01 09:19:43;;;;;;;13.10;2.70;;;12.70;99.90;;;;;;5101228;28;20450;-52
2023/11/01 09:22:10;;;;;;;3.17;2.17;;;12.90;99.90;;;;;;5119207;28;20435;-50
2023/11/01 09:24:38;;;;;;;4.07;2.00;;;13.50;99.90;;;;;;5109513;28;20879;-56
2023/11/01 09:27:06;;;;;;;3.40;2.00;;;14.50;99.90;;;;;;5078328;28;20462;-61
2023/11/01 09:29:34;;;;;;;3.83;2.07;;;16.10;99.90;;;;;;5095031;28;20503;-62
2023/11/01 09:32:02;;;;;;;2.70;1.97;;;17.50;99.90;;;;;;5094497;28;20490;-63
2023/11/01 09:34:30;;;;;;;9.20;2.87;;;18.90;99.90;;;;;;5094329;28;20477;-64
2023/11/01 09:36:58;;;;;;;3.90;2.57;;;20.00;99.90;;;;;;5100149;28;20427;-62
2023/11/01 09:39:26;;;;;;;4.93;4.23;;;20.70;99.90;;;;;;5099615;28;20452;-61
2023/11/01 09:42:02;;;;;;;5.37;2.30;;;21.30;99.90;;;;;;5100519;28;20765;-62
2023/11/01 09:44:30;;;;;;;4.83;2.47;;;21.90;99.90;;;;;;5096773;28;20925;-64
2023/11/01 09:47:02;;;;;;;7.00;2.23;;;22.40;99.00;;;;;;5096859;28;20419;-54
2023/11/01 09:49:31;;;;;;;5.43;2.67;;;22.90;97.40;;;;;;5110535;28;20623;-55
2023/11/01 09:52:05;;;;;;;5.63;3.00;;;23.30;94.70;;;;;;5098861;28;20470;-54
2023/11/01 09:54:32;;;;;;;5.93;2.60;;;23.80;92.70;;;;;;5107596;28;20449;-64
2023/11/01 09:57:01;;;;;;;5.50;3.30;;;24.20;91.00;;;;;;5083189;28;20449;-64
2023/11/01 09:59:29;;;;;;;6.27;2.70;;;24.20;90.10;;;;;;5093908;28;20516;-64
2023/11/01 10:01:57;;;;;;;4.33;2.40;;;24.20;89.00;;;;;;5093366;28;20453;-64
2023/11/01 10:04:24;;;;;;;2.43;1.90;;;24.10;88.00;;;;;;5093555;28;20546;-63
2023/11/01 10:06:52;;;;;;;8.13;2.07;;;24.20;87.90;;;;;;5102662;28;20438;-67
2023/11/01 10:09:21;;;;;;;3.90;3.30;;;24.30;86.60;;;;;;5095367;28;20499;-58
2023/11/01 10:11:49;;;;;;;5.07;3.23;;;24.10;86.90;;;;;;5116891;28;20477;-57
2023/11/01 10:14:27;;;;;;;6.20;2.80;;;24.00;86.80;;;;;;5114671;28;20441;-61
2023/11/01 10:16:57;;;;;;;16.47;2.60;;;23.80;88.30;;;;;;5115235;28;20454;-62
2023/11/01 10:19:24;;;;;;;3.80;2.00;;;23.80;88.00;;;;;;5103066;28;20426;-58
2023/11/01 10:21:52;;;;;;;3.23;2.30;;;23.90;88.10;;;;;;5106194;28;20533;-63
2023/11/01 10:24:23;;;;;;;3.50;3.10;;;23.90;87.90;;;;;;5094019;28;20434;-66
2023/11/01 10:26:50;;;;;;;3.07;2.60;;;23.80;88.00;;;;;;5107864;28;20446;-63
2023/11/01 10:29:18;;;;;;;3.80;1.80;;;23.40;89.30;;;;;;5101276;28;20430;-58
2023/11/01 10:31:53;;;;;;;3.27;2.47;;;22.60;90.80;;;;;;5114632;28;20485;-61
2023/11/01 10:34:20;;;;;;;4.33;1.80;;;21.80;93.30;;;;;;5098381;28;20484;-65
2023/11/01 10:36:51;;;;;;;5.20;1.80;;;21.20;95.50;;;;;;5093613;28;21009;-62
2023/11/01 10:39:21;;;;;;;4.63;1.90;;;20.40;98.50;;;;;;5113276;28;20437;-66
2023/11/01 10:41:50;;;;;;;4.00;1.80;;;19.70;99.90;;;;;;5105382;28;20515;-66
2023/11/01 10:44:20;;;;;;;3.33;1.80;;;18.90;99.90;;;;;;5093946;28;20441;-65
2023/11/01 10:46:48;;;;;;;4.90;2.43;;;18.60;99.90;;;;;;5093496;28;20954;-66
2023/11/01 10:49:16;;;;;;;2.43;2.10;;;18.90;99.90;;;;;;5104453;28;20502;-66
2023/11/01 10:51:44;;;;;;;2.90;1.50;;;19.30;99.90;;;;;;5093814;28;20979;-64
2023/11/01 10:54:12;;;;;;;2.60;1.80;;;19.50;99.90;;;;;;5106904;28;20506;-61
2023/11/01 10:56:41;;;;;;;4.73;1.97;;;19.50;99.90;;;;;;5095821;28;20461;-66
2023/11/01 10:59:15;;;;;;;4.20;1.90;;;19.50;99.90;;;;;;5109372;28;20496;-58
2023/11/01 11:01:51;;;;;;;3.10;2.50;;;19.40;99.90;;;;;;5116287;28;20552;-64
2023/11/01 11:04:28;;;;;;;8.87;2.10;;;19.20;99.90;;;;;;5095305;28;20425;-66
2023/11/01 11:06:59;;;;;;;2.23;1.40;;;18.80;99.90;;;;;;5093017;28;20475;-67
2023/11/01 11:09:27;;;;;;;3.63;2.20;;;18.40;99.90;;;;;;5100463;28;20928;-67
2023/11/01 11:12:20;;;;;;;5.50;2.07;;;18.10;99.90;;;;;;5081519;28;20466;-67
2023/11/01 11:14:48;;;;;;;3.70;2.23;;;17.60;99.90;;;;;;5107834;28;20446;-65
2023/11/01 11:17:17;;;;;;;14.60;3.20;;;17.20;99.90;;;;;;5110593;28;20445;-72
2023/11/01 11:20:13;;;;;;;5.00;3.20;;;17.00;99.90;;;;;;5109936;28;20464;-56
2023/11/01 11:23:08;;;;;;;2.67;1.87;;;16.80;99.90;;;;;;5115370;28;20468;-65
2023/11/01 11:25:48;;;;;;;3.97;1.60;;;16.60;99.90;;;;;;5090155;28;20454;-67
2023/11/01 11:28:43;;;;;;;3.27;2.97;;;16.50;99.90;;;;;;5095326;28;20429;-60
2023/11/01 11:31:12;;;;;;;3.60;2.10;;;16.30;99.90;;;;;;5079723;28;20490;-65
2023/11/01 11:34:15;;;;;;;2.47;2.27;;;16.30;99.90;;;;;;5077145;28;20466;-65
2023/11/01 11:37:05;;;;;;;3.43;1.97;;;16.30;99.90;;;;;;5100757;28;20454;-56
2023/11/01 11:39:55;;;;;;;3.07;1.67;;;16.20;99.90;;;;;;5108422;28;20457;-68
2023/11/01 11:42:49;;;;;;;3.83;2.03;;;16.00;99.90;;;;;;5097835;28;20467;-63
2023/11/01 11:45:31;;;;;;;5.47;2.40;;;16.10;99.90;;;;;;5120340;28;20418;-48
2023/11/01 11:47:58;;;;;;;4.87;1.60;;;16.20;99.90;;;;;;5116116;28;20450;-59
2023/11/01 11:50:26;;;;;;;4.03;3.13;;;16.30;99.90;;;;;;5096083;28;20511;-60
2023/11/01 11:52:53;;;;;;;2.83;1.40;;;16.50;99.90;;;;;;5089836;28;20515;-61
2023/11/01 11:55:43;;;;;;;2.40;1.70;;;16.60;99.90;;;;;;5095712;28;20477;-61
2023/11/01 11:58:10;;;;;;;1.97;1.43;;;16.70;99.90;;;;;;5105107;28;20413;-50
2023/11/01 12:00:46;;;;;;;1.87;1.20;;;16.70;99.90;;;;;;5105115;28;20476;-61
2023/11/01 12:03:23;;;;;;;1.87;1.40;;;16.70;99.90;;;;;;5096252;28;20465;-64
2023/11/01 12:06:00;;;;;;;1.50;1.30;;;16.60;99.90;;;;;;5118932;28;20405;-49
2023/11/01 12:08:35;;;;;;;2.47;1.30;;;16.60;99.90;;;;;;5105545;28;20449;-46
2023/11/01 12:11:03;;;;;;;7.10;2.10;;;16.40;99.90;;;;;;5114319;28;20472;-60
2023/11/01 12:13:46;;;;;;;1.93;1.37;;;16.30;99.90;;;;;;5096178;28;20441;-56
2023/11/01 12:16:27;;;;;;;2.53;1.80;;;16.20;99.90;;;;;;5111705;28;20454;-54
2023/11/01 12:19:11;;;;;;;4.33;1.83;;;16.10;99.90;;;;;;5102094;28;20487;-53
2023/11/01 12:21:42;;;;;;;1.70;1.57;;;16.00;99.90;;;;;;5117876;28;20438;-51
2023/11/01 12:24:10;;;;;;;8.70;1.50;;;16.00;99.90;;;;;;5107422;28;20444;-58
2023/11/01 12:26:56;;;;;;;1.87;1.40;;;15.90;99.90;;;;;;5095939;28;20476;-57
2023/11/01 12:29:24;;;;;;;1.50;1.40;;;16.00;99.90;;;;;;5110624;28;20401;-52
2023/11/01 12:32:04;;;;;;;2.13;1.20;;;15.90;99.90;;;;;;5108688;28;20546;-57
2023/11/01 12:34:32;;;;;;;1.30;1.20;;;16.00;99.90;;;;;;5115051;28;20433;-55
2023/11/01 12:37:01;;;;;;;2.23;1.63;;;16.00;99.90;;;;;;5098753;28;20449;-53
2023/11/01 12:39:28;;;;;;;3.67;1.63;;;15.90;99.90;;;;;;5101935;28;20943;-59
2023/11/01 12:41:56;;;;;;;3.90;1.60;;;15.90;99.90;;;;;;5097735;28;20434;-62
2023/11/01 12:44:24;;;;;;;2.90;1.33;;;15.80;99.90;;;;;;5094976;28;20903;-60
2023/11/01 12:46:53;;;;;;;2.77;1.60;;;16.00;99.90;;;;;;5118690;28;20468;-59
2023/11/01 12:49:22;;;;;;;2.80;1.60;;;16.10;99.90;;;;;;5105239;28;20878;-59
2023/11/01 12:51:49;;;;;;;3.57;1.30;;;16.10;99.90;;;;;;5114482;28;20485;-54
2023/11/01 12:54:16;;;;;;;2.37;1.50;;;16.10;99.90;;;;;;5100499;28;20471;-55
2023/11/01 12:56:44;;;;;;;2.70;1.30;;;16.30;99.90;;;;;;5118256;28;20429;-53
2023/11/01 12:59:12;;;;;;;2.20;1.50;;;16.40;99.90;;;;;;5120878;28;20430;-53
2023/11/01 13:01:44;;;;;;;1.83;1.50;;;16.60;99.90;;;;;;5110055;28;20452;-53